METAR Reports From Nearby Airports

 

KLUD - Decatur, Texas, USA
Distance from Wildwood: ESE 5mi, 8km
Updated: Nov 12, 2018 12:15pm
Overcast
Overcast
 Wind from N
Wind: N 13 mph , 20 km/h, Gust: 26 mph , 43 km/h
Temperature: 39°F , 4°C
Wind Chill: 31°F , -1°C
Dew Point: 36°F , 2°C
Humidity: 87%
Barometer: 30.27 inHg , 1025.1 hPa
Clouds: Overcast
Visibility: 10 miles , 16 km
Cloud details: Overcast 1300 ft
2018/11/12 18:15 KLUD 121815Z AUTO 35011G23KT 10SM OVC013 04/02 A3027 RMK AO2 T00350016
KXBP - Bridgeport, Texas, USA
Distance from Wildwood: WSW 11mi, 18km
Updated: Nov 12, 2018 12:15pm
Overcast
Overcast
 Wind from N
Wind: N 15 mph , 24 km/h, Gust: 23 mph , 37 km/h
Temperature: 39°F , 4°C
Wind Chill: 31°F , -1°C
Dew Point: 34°F , 1°C
Humidity: 81%
Barometer: 30.32 inHg , 1026.8 hPa
Clouds: Overcast
Visibility: 10 miles , 16 km
Cloud details: Overcast 1500 ft
2018/11/12 18:15 KXBP 121815Z AUTO 36013G20KT 10SM OVC015 04/01 A3032 RMK AO2 T00400014 PNO
 
K0F2 - Bowie, Texas, USA
Distance from Wildwood: NNW 24mi, 39km
Updated: Nov 12, 2018 12:15pm
Overcast
Overcast
 Wind from NNW
Wind: NNW 16 mph , 26 km/h, Gust: 29 mph , 46 km/h
Temperature: 37°F , 3°C
Wind Chill: 28°F , -2°C
Dew Point: 34°F , 1°C
Humidity: 87%
Barometer: 30.30 inHg , 1026.1 hPa
Clouds: Overcast
Visibility: 10 miles , 16 km
Cloud details: Overcast 1100 ft
2018/11/12 18:15 K0F2 121815Z AUTO 34014G25KT 10SM OVC011 03/01 A3030 RMK AO2 T00250008
KDTO - Denton, Texas, USA
Distance from Wildwood: E 27mi, 44km
Updated: Nov 12, 2018 11:53am
Overcast
Overcast
 Wind from N
Wind: N 20 mph , 31 km/h, Gust: 28 mph , 44 km/h
Temperature: 39°F , 4°C
Wind Chill: 29°F , -2°C
Dew Point: 36°F , 2°C
Humidity: 87%
Barometer: 30.26 inHg , 1024.7 hPa
Clouds: Overcast
Visibility: 10 miles , 16 km
Cloud details: Overcast 1500 ft
2018/11/12 17:53 KDTO 121753Z 35017G24KT 10SM OVC015 04/02 A3026 RMK AO2 PK WND 35028/1702 RAB02E34 SLP248 P0000 60002 T00440022 10061 20039 51020
 
KAFW - Ft Worth/Allianc, Texas, USA
Distance from Wildwood: SE 29mi, 46km
Updated: Nov 12, 2018 12:19pm
Overcast
Overcast
 Wind from N
Wind: N 23 mph , 37 km/h, Gust: 31 mph , 50 km/h
Temperature: 41°F , 5°C
Wind Chill: 31°F , -1°C
Dew Point: 36°F , 2°C
Humidity: 81%
Barometer: 30.26 inHg , 1024.7 hPa
Clouds: Overcast
Visibility: 10 miles , 16 km
Cloud details: Overcast 1500 ft
2018/11/12 18:19 KAFW 121819Z 35020G27KT 10SM OVC015 05/02 A3026 RMK AO2 PK WND 35027/1819 T00500017
KFTW - Fort Worth, Texas, USA
Distance from Wildwood: SSE 34mi, 55km
Updated: Nov 12, 2018 11:53am
Overcast
Overcast
 Wind from NNW
Wind: NNW 15 mph , 24 km/h, Gust: 26 mph , 43 km/h
Temperature: 39°F , 4°C
Wind Chill: 31°F , -1°C
Dew Point: 36°F , 2°C
Humidity: 87%
Barometer: 30.26 inHg , 1024.7 hPa
Clouds: Overcast
Visibility: 10 miles , 16 km
Cloud details: Overcast 1200 ft
2018/11/12 17:53 KFTW 121753Z 34013G23KT 10SM OVC012 04/02 A3026 RMK AO2 SLP248 60001 T00440022 10061 20044 51024
 
KNFW - Fort Worth Nas, Texas, USA
Distance from Wildwood: SSE 36mi, 58km
Updated: Nov 12, 2018 11:52am
Overcast
Overcast
 Wind from N
Wind: N 16 mph , 26 km/h, Gust: 32 mph , 52 km/h
Temperature: 43°F , 6°C
Wind Chill: 35°F , 2°C
Dew Point: 37°F , 3°C
Humidity: 81%
Barometer: 30.28 inHg , 1025.4 hPa
Clouds: Overcast
Visibility: 10 miles , 16 km
Cloud details: Overcast 1600 ft
2018/11/12 17:52 KNFW 121752Z 35014G28KT 10SM OVC016 06/03 A3028 RMK AO2 PK WND 35028/1744 SLP234 60001 T00610028 10072 20056 51023 $
KGLE - Gainesville, Texas, USA
Distance from Wildwood: NE 38mi, 61km
Updated: Nov 12, 2018 12:15pm
Overcast
Overcast
 Wind from N
Wind: N 20 mph , 31 km/h, Gust: 28 mph , 44 km/h
Temperature: 37°F , 3°C
Wind Chill: 27°F , -3°C
Dew Point: 34°F , 1°C
Humidity: 87%
Barometer: 30.29 inHg , 1025.7 hPa
Clouds: Overcast
Visibility: 10 miles , 16 km
Cloud details: Overcast 1200 ft
2018/11/12 18:15 KGLE 121815Z AUTO 35017G24KT 10SM OVC012 03/01 A3029 RMK AO2 T00340012
 
KMWL - Mineral Wells, Texas, USA
Distance from Wildwood: SW 41mi, 65km
Updated: Nov 12, 2018 11:53am
Overcast
Overcast
 Wind from NNW
Wind: NNW 17 mph , 28 km/h, Gust: 25 mph , 41 km/h
Temperature: 39°F , 4°C
Wind Chill: 30°F , -1°C
Dew Point: 34°F , 1°C
Humidity: 81%
Barometer: 30.28 inHg , 1025.4 hPa
Clouds: Overcast
Visibility: 10 miles , 16 km
Cloud details: Overcast 1400 ft
2018/11/12 17:53 KMWL 121753Z AUTO 34015G22KT 10SM OVC014 04/01 A3028 RMK AO2 PK WND 35026/1718 SLP255 60002 T00440011 10067 20039 51023
KDFW - Dallas/Ft Worth, Texas, USA
Distance from Wildwood: ESE 45mi, 73km
Updated: Nov 12, 2018 12:13pm
Light drizzle, Mist, Overcast
Light drizzle, Mist, Overcast
 Wind from NNW
Wind: NNW 17 mph , 28 km/h, Gust: 24 mph , 39 km/h
Temperature: 41°F , 5°C
Wind Chill: 33°F , 1°C
Dew Point: 37°F , 3°C
Humidity: 87%
Barometer: 30.23 inHg , 1023.7 hPa
Summary: Light drizzle, Mist
Clouds: Overcast
Visibility: 4 miles , 6 km
Cloud details: Mostly Cloudy 1300 ft
Overcast 2000 ft
2018/11/12 18:13 KDFW 121813Z 33015G21KT 4SM -DZ BR BKN013 OVC020 05/03 A3023 RMK AO2 DZB06 P0000 T00500033 $